Terminal Aerodrome Forecast
Issued by NWS

Home | Current Version | Previous Version | Text Only | Print | Product List | Glossary On
Versions: 1 2 3 4 5 6 7 8 9 10 11 12 13 14 15 16 17 18 19 20 21 22 23 24 25 26 27 28
370
FTUS46 KSEW 292328
TAFSEA
TAF
KSEA 292328Z 3000/3106 21019G25KT P6SM VCSH BKN018 BKN080
      TEMPO 3000/3003 SCT018 BKN080
     FM300300 22015G21KT P6SM VCSH OVC019
     FM301000 22012KT P6SM VCSH OVC015
     FM301800 22013KT P6SM VCSH BKN019
     FM302100 24010KT P6SM BKN030
     FM302300 26010KT P6SM BKN045=

USA.gov is the U.S. government's official web portal to all federal, state and local government web resources and services.